This is the latest recevied weather packets stored in our database for station/object CE3RCJ-14. If no packets are shown the sender has not sent any weather packets the latest 10 day(s).
| Time | Temp. | Humidity | Pressure | Rain* | Wind** | Luminosity | Snow |
|---|---|---|---|---|---|---|---|
| 1777848182 | 18.89° C | 35% | 1017.4 hPa | - | - | - | - |
| 1777847582 | 18.89° C | 35% | 1017.5 hPa | - | - | - | - |
| 1777846698 | 18.89° C | 35% | 1017.2 hPa | - | - | - | - |
| 1777843982 | 20° C | 35% | 1016.4 hPa | - | - | - | - |
| 1777842182 | 20.56° C | 35% | 1016.1 hPa | - | - | - | - |
| 1777840683 | 20.56° C | 35% | 1015.7 hPa | - | - | - | - |
| 1777839782 | 21.11° C | 35% | 1015.6 hPa | - | - | - | - |
| 1777837682 | 21.11° C | 35% | 1015.5 hPa | - | - | - | - |
| 1777837082 | 21.67° C | 34% | 1015.5 hPa | - | - | - | - |
| 1777836482 | 21.67° C | 34% | 1015.4 hPa | - | - | - | - |
| 1777834682 | 21.67° C | 34% | 1015.2 hPa | - | - | - | - |
| 1777834382 | 21.67° C | 34% | 1015.2 hPa | - | - | - | - |
| 1777833782 | 21.67° C | 34% | 1015.2 hPa | - | - | - | - |
| 1777833483 | 21.67° C | 34% | 1015.2 hPa | - | - | - | - |
| 1777832582 | 21.11° C | 35% | 1015.2 hPa | - | - | - | - |
| 1777829582 | 20.56° C | 37% | 1016 hPa | - | - | - | - |
| 1777828397 | 20.56° C | 37% | 1016.3 hPa | - | - | - | - |
| 1777827782 | 20° C | 37% | 1016.5 hPa | - | - | - | - |
| 1777826582 | 20° C | 37% | 1016.6 hPa | - | - | - | - |
| 1777826282 | 20° C | 37% | 1016.7 hPa | - | - | - | - |
| 1777825082 | 20° C | 38% | 1016.8 hPa | - | - | - | - |
| 1777822082 | 18.89° C | 39% | 1017.3 hPa | - | - | - | - |
| 1777816083 | 15° C | 45% | 1018.7 hPa | - | - | - | - |
| 1777815782 | 15° C | 45% | 1018.9 hPa | - | - | - | - |
| 1777815182 | 14.44° C | 46% | 1019.3 hPa | - | - | - | - |
* Rain since midnight (hover to see other rain measurements)
** Current wind speed in m/s (hover to see current wind gust speed)